createdAt,value
2023-01-20T00:01:28.275Z,0
2023-01-20T00:03:08.576Z,0
2023-01-20T00:04:48.874Z,0
2023-01-20T00:06:29.139Z,0
2023-01-20T00:11:30.011Z,0
2023-01-20T00:13:10.261Z,0
2023-01-20T00:14:50.565Z,0
2023-01-20T00:16:30.916Z,0
2023-01-20T00:18:11.203Z,0
2023-01-20T00:19:51.551Z,0
2023-01-20T00:21:31.960Z,0
2023-01-20T00:23:12.316Z,0
2023-01-20T00:24:52.754Z,0
2023-01-20T00:26:33.179Z,0
2023-01-20T00:28:13.537Z,0
2023-01-20T00:29:53.883Z,0
2023-01-20T00:31:34.197Z,0
2023-01-20T00:33:14.408Z,0
2023-01-20T00:34:54.709Z,0
2023-01-20T00:36:34.994Z,0
2023-01-20T00:38:15.315Z,0
2023-01-20T00:39:55.630Z,0
2023-01-20T00:41:35.916Z,0
2023-01-20T00:43:16.163Z,0
2023-01-20T00:44:56.416Z,0
2023-01-20T00:46:36.813Z,0
2023-01-20T00:48:17.108Z,0
2023-01-20T00:49:57.410Z,0
2023-01-20T00:51:37.775Z,0
2023-01-20T00:53:18.142Z,0
2023-01-20T00:54:58.492Z,0
2023-01-20T00:56:38.880Z,0
2023-01-20T00:58:19.303Z,0
2023-01-20T00:59:59.744Z,0
2023-01-20T01:01:40.314Z,0
2023-01-20T01:03:20.610Z,0
2023-01-20T01:05:01.014Z,0
2023-01-20T01:06:41.334Z,0
2023-01-20T01:08:21.616Z,0
2023-01-20T01:10:02.010Z,0
2023-01-20T01:11:42.216Z,0
2023-01-20T01:13:22.458Z,0
2023-01-20T01:15:02.757Z,0
2023-01-20T01:16:42.975Z,0
2023-01-20T01:18:23.301Z,0
2023-01-20T01:20:03.513Z,0
2023-01-20T01:21:43.849Z,0
2023-01-20T01:23:24.207Z,0
2023-01-20T01:25:04.598Z,0
2023-01-20T01:26:44.976Z,0
2023-01-20T01:28:25.342Z,0
2023-01-20T01:30:05.715Z,0
2023-01-20T01:31:46.153Z,0
2023-01-20T01:33:26.483Z,0
2023-01-20T01:35:06.816Z,0
2023-01-20T01:36:47.294Z,0
2023-01-20T01:38:27.582Z,0
2023-01-20T01:40:07.845Z,0
2023-01-20T01:41:48.145Z,0
2023-01-20T01:43:28.460Z,0
2023-01-20T01:45:08.710Z,0
2023-01-20T01:46:49.109Z,0
2023-01-20T01:48:29.365Z,0
2023-01-20T01:50:09.694Z,0
2023-01-20T01:51:49.966Z,0
2023-01-20T01:53:30.251Z,0
2023-01-20T01:55:10.570Z,0
2023-01-20T01:56:50.813Z,0
2023-01-20T01:58:31.122Z,0
2023-01-20T02:00:11.421Z,0
2023-01-20T02:01:51.797Z,0
2023-01-20T02:03:31.968Z,0
2023-01-20T02:05:12.268Z,0
2023-01-20T02:06:52.502Z,0
2023-01-20T02:08:32.755Z,0
2023-01-20T02:10:13.360Z,0
2023-01-20T02:11:53.812Z,0
2023-01-20T02:13:34.212Z,0
2023-01-20T02:15:14.868Z,0
2023-01-20T02:16:54.952Z,0
2023-01-20T02:18:35.262Z,0
2023-01-20T02:20:15.578Z,0
2023-01-20T02:21:55.945Z,0
2023-01-20T02:23:36.225Z,0
2023-01-20T02:25:16.962Z,0
2023-01-20T02:26:56.766Z,0
2023-01-20T02:28:37.078Z,0
2023-01-20T02:30:17.448Z,0
2023-01-20T02:31:57.709Z,0
2023-01-20T02:33:37.925Z,0
2023-01-20T02:35:18.254Z,0
2023-01-20T02:36:58.597Z,0
2023-01-20T02:38:38.955Z,0
2023-01-20T02:40:19.288Z,0
2023-01-20T02:41:59.639Z,0
2023-01-20T02:43:40.041Z,0
2023-01-20T02:45:20.430Z,0
2023-01-20T02:47:00.840Z,0
2023-01-20T02:48:41.224Z,0
2023-01-20T02:50:21.602Z,0
2023-01-20T02:52:02.068Z,0
2023-01-20T02:53:42.386Z,0
2023-01-20T02:55:22.816Z,0
2023-01-20T02:57:03.217Z,0
2023-01-20T02:58:43.481Z,0
2023-01-20T03:00:23.792Z,0
2023-01-20T03:02:04.209Z,0
2023-01-20T03:03:44.316Z,0
2023-01-20T03:05:24.657Z,0
2023-01-20T03:07:04.927Z,0
2023-01-20T03:08:45.347Z,0
2023-01-20T03:10:25.823Z,0
2023-01-20T03:12:06.136Z,0
2023-01-20T03:13:46.531Z,0
2023-01-20T03:15:26.924Z,0
2023-01-20T03:17:07.293Z,0
2023-01-20T03:18:47.674Z,0
2023-01-20T03:20:28.044Z,0
2023-01-20T03:22:08.459Z,0
2023-01-20T03:23:48.737Z,0
2023-01-20T03:25:28.964Z,0
2023-01-20T03:27:09.317Z,0
2023-01-20T03:28:49.643Z,0
2023-01-20T03:30:30.289Z,0
2023-01-20T03:32:10.433Z,0
2023-01-20T03:33:50.842Z,0
2023-01-20T03:35:31.128Z,0
2023-01-20T03:37:11.544Z,0
2023-01-20T03:38:51.911Z,0
2023-01-20T03:40:32.309Z,0
2023-01-20T03:42:12.704Z,0
2023-01-20T03:43:53.052Z,0
2023-01-20T03:45:33.513Z,0
2023-01-20T03:47:13.896Z,0
2023-01-20T03:48:54.195Z,0
2023-01-20T03:50:34.508Z,0
2023-01-20T03:52:14.745Z,0
2023-01-20T03:53:55.084Z,0
2023-01-20T03:55:35.374Z,0
2023-01-20T03:57:15.663Z,0
2023-01-20T03:58:55.985Z,0
2023-01-20T04:00:36.286Z,0
2023-01-20T04:02:16.660Z,0
2023-01-20T04:03:56.843Z,0
2023-01-20T04:05:37.103Z,0
2023-01-20T04:07:17.372Z,0
2023-01-20T04:08:57.663Z,0
2023-01-20T04:10:37.965Z,0
2023-01-20T04:12:18.277Z,0
2023-01-20T04:13:58.539Z,0
2023-01-20T04:15:38.849Z,0
2023-01-20T04:17:19.097Z,0
2023-01-20T04:18:59.382Z,0
2023-01-20T04:20:39.669Z,0
2023-01-20T04:22:19.976Z,0
2023-01-20T04:24:00.219Z,0
2023-01-20T04:25:40.501Z,0
2023-01-20T04:27:20.849Z,0
2023-01-20T04:29:01.098Z,0
2023-01-20T04:30:41.465Z,0
2023-01-20T04:32:21.691Z,0
2023-01-20T04:34:01.937Z,0
2023-01-20T04:35:42.239Z,0
2023-01-20T04:37:22.557Z,0
2023-01-20T04:39:02.961Z,0
2023-01-20T04:40:43.323Z,0
2023-01-20T04:42:23.749Z,0
2023-01-20T04:44:04.049Z,0
2023-01-20T04:45:44.433Z,0
2023-01-20T04:47:24.927Z,0
2023-01-20T04:49:05.354Z,0
2023-01-20T04:50:45.675Z,0
2023-01-20T04:52:25.988Z,0
2023-01-20T04:54:06.318Z,0
2023-01-20T04:55:46.731Z,0
2023-01-20T04:57:27.086Z,0
2023-01-20T04:59:07.523Z,0
2023-01-20T05:00:47.896Z,0
2023-01-20T05:02:28.412Z,0
2023-01-20T05:04:08.653Z,0
2023-01-20T05:05:49.045Z,0
2023-01-20T05:07:29.475Z,0
2023-01-20T05:09:09.872Z,0
2023-01-20T05:10:50.118Z,0
2023-01-20T05:12:30.365Z,0
2023-01-20T05:14:10.662Z,0
2023-01-20T05:15:51.024Z,0
2023-01-20T05:17:31.276Z,0
2023-01-20T05:19:12.722Z,0
2023-01-20T05:20:51.781Z,0
2023-01-20T05:22:32.016Z,0
2023-01-20T05:24:12.338Z,0
2023-01-20T05:25:52.640Z,0
2023-01-20T05:27:32.980Z,0
2023-01-20T05:29:13.297Z,0
2023-01-20T05:30:53.693Z,0
2023-01-20T05:32:33.907Z,0
2023-01-20T05:34:14.204Z,0
2023-01-20T05:35:56.014Z,0
2023-01-20T05:37:34.704Z,0
2023-01-20T05:39:15.000Z,0
2023-01-20T05:40:55.372Z,0
2023-01-20T05:42:35.670Z,0
2023-01-20T05:44:15.945Z,0
2023-01-20T05:45:56.272Z,0
2023-01-20T05:47:36.589Z,0
2023-01-20T05:49:16.853Z,0
2023-01-20T05:50:57.106Z,0
2023-01-20T05:52:37.402Z,0
2023-01-20T05:54:17.639Z,0
2023-01-20T05:55:57.951Z,0
2023-01-20T05:57:38.289Z,0
2023-01-20T05:59:18.592Z,0
2023-01-20T06:00:58.952Z,0
2023-01-20T06:02:39.207Z,0
2023-01-20T06:04:19.508Z,0
2023-01-20T06:05:59.816Z,0
2023-01-20T06:07:40.113Z,0
2023-01-20T06:09:20.416Z,0
2023-01-20T06:11:00.722Z,0
2023-01-20T06:12:41.000Z,0
2023-01-20T06:14:21.375Z,0
2023-01-20T06:16:01.720Z,0
2023-01-20T06:17:41.962Z,0
2023-01-20T06:19:22.272Z,0
2023-01-20T06:21:04.567Z,0
2023-01-20T06:21:04.574Z,0
2023-01-20T06:22:42.790Z,0
2023-01-20T06:24:23.051Z,0
2023-01-20T06:26:03.421Z,0
2023-01-20T06:27:43.659Z,0
2023-01-20T06:29:23.938Z,0
2023-01-20T06:31:10.014Z,0
2023-01-20T06:32:50.267Z,0
2023-01-20T06:34:30.558Z,1
2023-01-20T06:36:10.978Z,1
2023-01-20T06:37:51.382Z,1
2023-01-20T06:39:31.703Z,1
2023-01-20T06:41:12.028Z,1
2023-01-20T06:42:52.333Z,1
2023-01-20T06:44:32.628Z,2
2023-01-20T06:46:13.044Z,2
2023-01-20T06:47:53.289Z,3
2023-01-20T06:49:33.626Z,4
2023-01-20T06:51:13.972Z,6
2023-01-20T06:52:54.270Z,8
2023-01-20T06:54:34.574Z,11
2023-01-20T06:56:14.802Z,15
2023-01-20T06:57:55.082Z,20
2023-01-20T06:59:35.365Z,29
2023-01-20T07:01:15.827Z,41
2023-01-20T07:02:55.987Z,60
2023-01-20T07:04:41.129Z,77
2023-01-20T07:06:21.474Z,94
2023-01-20T07:08:01.877Z,110
2023-01-20T07:09:42.316Z,124
2023-01-20T07:11:22.730Z,146
2023-01-20T07:13:03.052Z,180
2023-01-20T07:14:43.375Z,233
2023-01-20T07:16:23.757Z,301
2023-01-20T07:18:04.119Z,368
2023-01-20T07:19:44.560Z,435
2023-01-20T07:21:26.538Z,501
2023-01-20T07:23:05.338Z,564
2023-01-20T07:24:45.737Z,626
2023-01-20T07:26:26.125Z,693
2023-01-20T07:28:06.542Z,762
2023-01-20T07:29:46.936Z,850
2023-01-20T07:31:27.306Z,963
2023-01-20T07:33:07.552Z,999
2023-01-20T07:34:50.150Z,999
2023-01-20T07:36:28.216Z,999
2023-01-20T07:38:08.581Z,999
2023-01-20T07:39:48.992Z,999
2023-01-20T07:41:29.366Z,999
2023-01-20T07:43:09.807Z,999
2023-01-20T07:44:50.100Z,999
2023-01-20T07:46:30.462Z,999
2023-01-20T07:48:10.793Z,999
2023-01-20T07:49:51.109Z,999
2023-01-20T07:51:31.391Z,999
2023-01-20T07:53:11.734Z,999
2023-01-20T07:54:57.527Z,999
2023-01-20T07:56:43.422Z,999
2023-01-20T07:58:23.903Z,999
2023-01-20T08:00:09.852Z,999
2023-01-20T08:01:50.402Z,999
2023-01-20T08:03:30.645Z,999
2023-01-20T08:05:11.055Z,999
2023-01-20T08:06:51.432Z,999
2023-01-20T08:08:31.867Z,999
2023-01-20T08:10:12.226Z,999
2023-01-20T08:11:52.591Z,999
2023-01-20T08:13:32.984Z,999
2023-01-20T08:15:13.656Z,999
2023-01-20T08:16:53.972Z,999
2023-01-20T08:18:34.112Z,999
2023-01-20T08:20:14.452Z,999
2023-01-20T08:21:54.753Z,999
2023-01-20T08:23:35.020Z,999
2023-01-20T08:25:15.575Z,999
2023-01-20T08:26:55.599Z,999
2023-01-20T08:28:35.971Z,999
2023-01-20T08:30:16.373Z,999
2023-01-20T08:31:56.811Z,999
2023-01-20T08:33:37.151Z,999
2023-01-20T08:35:17.612Z,999
2023-01-20T08:36:57.967Z,999
2023-01-20T08:38:38.326Z,999
2023-01-20T08:40:18.758Z,999
2023-01-20T08:41:59.172Z,999
2023-01-20T08:43:39.570Z,999
2023-01-20T08:45:19.993Z,999
2023-01-20T08:47:00.383Z,999
2023-01-20T08:48:40.762Z,999
2023-01-20T08:50:21.176Z,999
2023-01-20T08:52:01.625Z,999
2023-01-20T08:53:41.870Z,999
2023-01-20T08:55:22.265Z,999
2023-01-20T08:57:02.660Z,999
2023-01-20T08:58:43.082Z,999
2023-01-20T09:02:03.791Z,999
2023-01-20T09:03:58.938Z,999
2023-01-20T09:05:24.374Z,999
2023-01-20T09:07:04.813Z,999
2023-01-20T09:08:45.234Z,999
2023-01-20T09:10:25.632Z,999
2023-01-20T09:12:05.993Z,999
2023-01-20T09:13:46.266Z,999
2023-01-20T09:15:26.678Z,999
2023-01-20T09:17:06.870Z,999
2023-01-20T09:18:47.192Z,999
2023-01-20T09:20:27.464Z,999
2023-01-20T09:22:07.753Z,999
2023-01-20T09:23:48.068Z,999
2023-01-20T09:25:28.358Z,999
2023-01-20T09:27:08.734Z,999
2023-01-20T09:28:49.136Z,999
2023-01-20T09:30:29.516Z,999
2023-01-20T09:32:09.886Z,999
2023-01-20T09:33:50.297Z,999
2023-01-20T09:35:30.692Z,999
2023-01-20T09:37:11.151Z,999
2023-01-20T09:38:51.593Z,999
2023-01-20T09:40:32.038Z,999
2023-01-20T09:42:12.342Z,999
2023-01-20T09:43:52.790Z,999
2023-01-20T09:45:33.210Z,999
2023-01-20T09:47:13.534Z,999
2023-01-20T09:48:53.881Z,999
2023-01-20T09:50:34.226Z,999
2023-01-20T09:52:14.531Z,999
2023-01-20T09:53:54.994Z,999
2023-01-20T09:55:35.356Z,999
2023-01-20T09:57:15.701Z,999
2023-01-20T09:58:56.115Z,999
2023-01-20T10:00:36.470Z,999
2023-01-20T10:02:22.040Z,999
2023-01-20T10:04:04.855Z,999
2023-01-20T10:05:42.885Z,999
2023-01-20T10:07:23.195Z,999
2023-01-20T10:09:06.483Z,999
2023-01-20T10:10:44.096Z,999
2023-01-20T10:12:24.438Z,999
2023-01-20T10:14:04.865Z,999
2023-01-20T10:15:45.267Z,999
2023-01-20T10:17:25.567Z,999
2023-01-20T10:19:05.964Z,999
2023-01-20T10:20:46.400Z,999
2023-01-20T10:22:26.853Z,999
2023-01-20T10:24:07.245Z,999
2023-01-20T10:25:47.709Z,999
2023-01-20T10:27:28.043Z,999
2023-01-20T10:29:08.369Z,999
2023-01-20T10:30:48.897Z,999
2023-01-20T10:32:29.096Z,999
2023-01-20T10:34:09.387Z,999
2023-01-20T10:35:49.718Z,999
2023-01-20T10:37:30.023Z,999
2023-01-20T10:39:10.420Z,999
2023-01-20T10:40:50.733Z,999
2023-01-20T10:42:31.021Z,999
2023-01-20T10:44:11.329Z,999
2023-01-20T10:45:51.652Z,999
2023-01-20T10:47:32.035Z,999
2023-01-20T10:49:12.300Z,999
2023-01-20T10:50:52.563Z,999
2023-01-20T10:52:32.953Z,999
2023-01-20T10:54:13.236Z,999
2023-01-20T10:55:53.549Z,999
2023-01-20T10:57:33.891Z,999
2023-01-20T10:59:14.175Z,999
2023-01-20T11:00:54.502Z,999
2023-01-20T11:02:35.197Z,999
2023-01-20T11:04:15.127Z,999
2023-01-20T11:05:55.539Z,999
2023-01-20T11:07:35.918Z,999
2023-01-20T11:09:16.301Z,999
2023-01-20T11:10:56.727Z,999
2023-01-20T11:12:37.106Z,999
2023-01-20T11:14:17.478Z,999
2023-01-20T11:15:57.978Z,999
2023-01-20T11:17:38.228Z,999
2023-01-20T11:19:18.662Z,999
2023-01-20T11:20:59.017Z,999
2023-01-20T11:22:39.422Z,999
2023-01-20T11:24:19.782Z,999
2023-01-20T11:26:00.204Z,999
2023-01-20T11:27:40.639Z,999
2023-01-20T11:29:21.089Z,999
2023-01-20T11:31:01.591Z,999
2023-01-20T11:32:41.891Z,999
2023-01-20T11:34:22.237Z,999
2023-01-20T11:36:02.626Z,999
2023-01-20T11:37:42.972Z,999
2023-01-20T11:39:23.392Z,999
2023-01-20T11:41:03.762Z,999
2023-01-20T11:42:44.134Z,999
2023-01-20T11:44:24.527Z,999
2023-01-20T11:46:04.840Z,999
2023-01-20T11:47:45.219Z,999
2023-01-20T11:49:25.623Z,999
2023-01-20T11:51:06.045Z,999
2023-01-20T11:52:46.418Z,999
2023-01-20T11:54:26.765Z,999
2023-01-20T11:56:07.094Z,999
2023-01-20T11:57:47.374Z,999
2023-01-20T11:59:27.712Z,999
2023-01-20T12:01:08.036Z,999
2023-01-20T12:02:48.321Z,999
2023-01-20T12:04:28.759Z,999
2023-01-20T12:06:08.982Z,999
2023-01-20T12:07:49.325Z,999
2023-01-20T12:09:29.614Z,999
2023-01-20T12:11:09.970Z,999
2023-01-20T12:12:50.275Z,999
2023-01-20T12:14:30.589Z,999
2023-01-20T12:16:11.020Z,999
2023-01-20T12:17:51.187Z,999
2023-01-20T12:19:31.488Z,999
2023-01-20T12:21:11.831Z,999
2023-01-20T12:22:52.157Z,999
2023-01-20T12:24:42.602Z,999
2023-01-20T12:26:12.955Z,999
2023-01-20T12:27:59.880Z,999
2023-01-20T12:29:40.326Z,999
2023-01-20T12:31:20.722Z,999
2023-01-20T12:33:01.054Z,999
2023-01-20T12:34:41.418Z,999
2023-01-20T12:36:21.840Z,999
2023-01-20T12:38:02.240Z,999
2023-01-20T12:39:42.625Z,999
2023-01-20T12:41:23.000Z,999
2023-01-20T12:43:03.426Z,999
2023-01-20T12:44:43.835Z,999
2023-01-20T12:46:24.215Z,999
2023-01-20T12:48:04.557Z,999
2023-01-20T12:49:44.924Z,999
2023-01-20T12:51:25.442Z,999
2023-01-20T12:53:05.783Z,999
2023-01-20T12:54:48.950Z,999
2023-01-20T12:56:26.565Z,999
2023-01-20T12:58:06.968Z,999
2023-01-20T12:59:47.291Z,999
2023-01-20T13:01:27.652Z,999
2023-01-20T13:03:08.007Z,999
2023-01-20T13:04:48.205Z,999
2023-01-20T13:06:28.544Z,999
2023-01-20T13:08:08.895Z,999
2023-01-20T13:09:49.242Z,999
2023-01-20T13:11:29.436Z,999
2023-01-20T13:13:09.739Z,999
2023-01-20T13:14:50.002Z,999
2023-01-20T13:16:30.302Z,999
2023-01-20T13:18:10.603Z,999
2023-01-20T13:19:50.965Z,999
2023-01-20T13:21:31.189Z,999
2023-01-20T13:23:11.536Z,999
2023-01-20T13:24:52.006Z,999
2023-01-20T13:26:32.369Z,999
2023-01-20T13:28:12.776Z,999
2023-01-20T13:29:53.174Z,999
2023-01-20T13:31:33.772Z,999
2023-01-20T13:33:13.851Z,999
2023-01-20T13:34:54.158Z,999
2023-01-20T13:36:34.504Z,999
2023-01-20T13:38:14.842Z,999
2023-01-20T13:39:55.162Z,999
2023-01-20T13:41:35.487Z,999
2023-01-20T13:43:15.791Z,999
2023-01-20T13:44:56.105Z,999
2023-01-20T13:46:36.437Z,999
2023-01-20T13:48:16.724Z,999
2023-01-20T13:49:57.061Z,999
2023-01-20T13:51:37.431Z,999
2023-01-20T13:53:17.740Z,999
2023-01-20T13:54:58.056Z,999
2023-01-20T13:56:38.369Z,999
2023-01-20T13:58:18.718Z,999
2023-01-20T13:59:59.021Z,999
2023-01-20T14:01:39.440Z,999
2023-01-20T14:03:19.652Z,999
2023-01-20T14:04:59.958Z,999
2023-01-20T14:06:40.310Z,999
2023-01-20T14:08:20.594Z,999
2023-01-20T14:10:00.920Z,999
2023-01-20T14:11:41.256Z,999
2023-01-20T14:13:21.554Z,999
2023-01-20T14:15:01.926Z,999
2023-01-20T14:16:42.197Z,999
2023-01-20T14:18:22.493Z,999
2023-01-20T14:20:02.838Z,999
2023-01-20T14:21:43.176Z,999
2023-01-20T14:23:23.475Z,999
2023-01-20T14:25:03.814Z,999
2023-01-20T14:26:44.101Z,999
2023-01-20T14:28:24.466Z,999
2023-01-20T14:30:04.845Z,999
2023-01-20T14:31:46.208Z,999
2023-01-20T14:33:25.567Z,999
2023-01-20T14:35:05.897Z,999
2023-01-20T14:36:46.293Z,999
2023-01-20T14:38:26.601Z,999
2023-01-20T14:40:07.563Z,999
2023-01-20T14:40:07.568Z,999
2023-01-20T14:40:07.576Z,999
2023-01-20T14:41:47.422Z,999
2023-01-20T14:43:27.761Z,999
2023-01-20T14:45:08.129Z,999
2023-01-20T14:46:48.513Z,999
2023-01-20T14:48:34.800Z,999
2023-01-20T14:50:09.346Z,999
2023-01-20T14:51:49.652Z,999
2023-01-20T14:53:30.060Z,999
2023-01-20T14:55:10.480Z,999
2023-01-20T14:56:50.835Z,999
2023-01-20T14:58:31.190Z,999
2023-01-20T15:00:11.563Z,999
2023-01-20T15:01:51.965Z,999
2023-01-20T15:03:32.238Z,999
2023-01-20T15:05:12.519Z,999
2023-01-20T15:06:52.879Z,999
2023-01-20T15:08:33.377Z,999
2023-01-20T15:10:13.611Z,999
2023-01-20T15:11:53.982Z,999
2023-01-20T15:15:14.793Z,999
2023-01-20T15:17:01.371Z,999
2023-01-20T15:18:41.759Z,999
2023-01-20T15:20:22.238Z,999
2023-01-20T15:22:02.589Z,999
2023-01-20T15:23:42.964Z,999
2023-01-20T15:25:23.373Z,999
2023-01-20T15:27:03.663Z,999
2023-01-20T15:28:43.975Z,999
2023-01-20T15:30:24.322Z,999
2023-01-20T15:32:04.636Z,999
2023-01-20T15:33:44.943Z,982
2023-01-20T15:35:25.289Z,942
2023-01-20T15:37:05.573Z,866
2023-01-20T15:38:45.900Z,806
2023-01-20T15:40:26.264Z,728
2023-01-20T15:42:06.556Z,667
2023-01-20T15:43:46.891Z,610
2023-01-20T15:45:27.228Z,553
2023-01-20T15:47:07.556Z,501
2023-01-20T15:48:47.861Z,455
2023-01-20T15:50:28.163Z,403
2023-01-20T15:52:08.488Z,351
2023-01-20T15:53:48.807Z,303
2023-01-20T15:55:29.193Z,256
2023-01-20T15:57:09.575Z,213
2023-01-20T15:58:49.933Z,176
2023-01-20T16:00:30.281Z,143
2023-01-20T16:02:10.673Z,114
2023-01-20T16:03:51.045Z,92
2023-01-20T16:05:31.430Z,74
2023-01-20T16:07:11.829Z,61
2023-01-20T16:08:52.194Z,48
2023-01-20T16:10:32.580Z,36
2023-01-20T16:12:12.985Z,29
2023-01-20T16:13:53.358Z,23
2023-01-20T16:27:00.413Z,3
2023-01-20T16:28:40.592Z,2
2023-01-20T16:32:48.735Z,1
2023-01-20T16:34:28.879Z,1
2023-01-20T16:36:09.281Z,1
2023-01-20T16:37:49.604Z,1
2023-01-20T16:39:29.875Z,1
2023-01-20T16:41:10.166Z,0
2023-01-20T16:42:50.388Z,0
2023-01-20T16:44:30.593Z,0
2023-01-20T16:46:10.865Z,0
2023-01-20T16:47:51.102Z,0
2023-01-20T16:49:31.385Z,0
2023-01-20T16:51:11.640Z,0
2023-01-20T16:52:51.830Z,0
2023-01-20T16:54:32.115Z,0
2023-01-20T16:56:12.356Z,0
2023-01-20T16:57:52.542Z,0
2023-01-20T16:59:32.761Z,0
2023-01-20T17:01:13.197Z,0
2023-01-20T17:02:53.333Z,0
2023-01-20T17:04:33.552Z,0
2023-01-20T17:06:15.507Z,0
2023-01-20T17:07:54.135Z,0
2023-01-20T17:09:34.354Z,0
2023-01-20T17:11:14.577Z,0
2023-01-20T17:12:54.820Z,0
2023-01-20T17:14:35.102Z,0
2023-01-20T17:16:15.364Z,0
2023-01-20T17:17:55.645Z,0
2023-01-20T17:19:35.843Z,0
2023-01-20T17:21:16.103Z,0
2023-01-20T17:22:56.247Z,0
2023-01-20T17:24:36.495Z,0
2023-01-20T17:26:16.736Z,0
2023-01-20T17:27:56.978Z,0
2023-01-20T17:29:37.255Z,0
2023-01-20T17:31:17.537Z,0
2023-01-20T17:32:57.748Z,0
2023-01-20T17:34:38.019Z,0
2023-01-20T17:36:18.226Z,0
2023-01-20T17:37:58.501Z,0
2023-01-20T17:39:38.743Z,0
2023-01-20T17:41:19.022Z,0
2023-01-20T17:42:59.228Z,0
2023-01-20T17:44:39.465Z,0
2023-01-20T17:46:19.779Z,0
2023-01-20T17:47:59.945Z,0
2023-01-20T17:49:40.201Z,0
2023-01-20T17:51:20.534Z,0
2023-01-20T17:53:00.596Z,0
2023-01-20T17:54:40.846Z,0
2023-01-20T17:56:21.075Z,0
2023-01-20T17:58:01.275Z,0
2023-01-20T17:59:41.511Z,0
2023-01-20T18:01:21.921Z,0
2023-01-20T18:03:01.975Z,0
2023-01-20T18:04:42.245Z,0
2023-01-20T18:06:22.485Z,0
2023-01-20T18:08:02.665Z,0
2023-01-20T18:09:43.177Z,0
2023-01-20T18:11:23.244Z,0
2023-01-20T18:13:03.302Z,0
2023-01-20T18:14:43.600Z,0
2023-01-20T18:16:23.874Z,0
2023-01-20T18:18:04.062Z,0
2023-01-20T18:19:44.277Z,0
2023-01-20T18:21:24.532Z,0
2023-01-20T18:23:04.790Z,0
2023-01-20T18:24:45.073Z,0
2023-01-20T18:26:25.347Z,0
2023-01-20T18:28:05.556Z,0
2023-01-20T18:29:45.784Z,0
2023-01-20T18:31:26.228Z,0
2023-01-20T18:33:06.260Z,0
2023-01-20T18:34:46.459Z,0
2023-01-20T18:36:26.721Z,0
2023-01-20T18:38:07.001Z,0
2023-01-20T18:39:47.211Z,0
2023-01-20T18:41:27.443Z,0
2023-01-20T18:43:07.571Z,0
2023-01-20T18:44:47.802Z,0
2023-01-20T18:46:28.155Z,0
2023-01-20T18:48:08.364Z,0
2023-01-20T18:49:48.524Z,0
2023-01-20T18:51:28.796Z,0
2023-01-20T18:53:09.049Z,0
2023-01-20T18:54:49.260Z,0
2023-01-20T18:56:29.478Z,0
2023-01-20T18:58:09.715Z,0
2023-01-20T18:59:49.951Z,0
2023-01-20T19:01:30.228Z,0
2023-01-20T19:03:10.445Z,0
2023-01-20T19:04:50.697Z,0
2023-01-20T19:06:31.010Z,0
2023-01-20T19:08:11.274Z,0
2023-01-20T19:09:51.592Z,0
2023-01-20T19:11:31.826Z,0
2023-01-20T19:13:12.052Z,0
2023-01-20T19:14:52.262Z,0
2023-01-20T19:16:32.466Z,0
2023-01-20T19:18:12.725Z,0
2023-01-20T19:19:58.749Z,0
2023-01-20T19:21:38.995Z,0
2023-01-20T19:23:19.244Z,0
2023-01-20T19:24:59.526Z,0
2023-01-20T19:26:39.757Z,0
2023-01-20T19:28:20.017Z,0
2023-01-20T19:30:00.292Z,0
2023-01-20T19:31:40.612Z,0
2023-01-20T19:33:20.791Z,0
2023-01-20T19:35:01.056Z,0
2023-01-20T19:36:41.277Z,0
2023-01-20T19:38:21.529Z,0
2023-01-20T19:40:01.805Z,0
2023-01-20T19:43:22.357Z,0
2023-01-20T19:45:02.525Z,0
2023-01-20T19:46:42.831Z,0
2023-01-20T19:48:23.000Z,0
2023-01-20T19:50:03.232Z,0
2023-01-20T19:51:43.508Z,0
2023-01-20T19:53:23.804Z,0
2023-01-20T19:55:04.030Z,0
2023-01-20T19:56:44.237Z,0
2023-01-20T19:58:24.495Z,0
2023-01-20T20:00:04.734Z,0
2023-01-20T20:01:45.003Z,0
2023-01-20T20:03:25.199Z,0
2023-01-20T20:05:05.462Z,0
2023-01-20T20:06:48.269Z,0
2023-01-20T20:08:25.858Z,0
2023-01-20T20:10:06.137Z,0
2023-01-20T20:11:46.378Z,0
2023-01-20T20:13:27.296Z,0
2023-01-20T20:15:06.934Z,0
2023-01-20T20:16:47.121Z,0
2023-01-20T20:18:27.332Z,0
2023-01-20T20:20:07.629Z,0
2023-01-20T20:21:47.863Z,0
2023-01-20T20:23:28.159Z,0
2023-01-20T20:25:11.205Z,0
2023-01-20T20:26:48.690Z,0
2023-01-20T20:28:28.982Z,0
2023-01-20T20:30:09.153Z,0
2023-01-20T20:31:49.566Z,0
2023-01-20T20:33:29.692Z,0
2023-01-20T20:35:09.976Z,0
2023-01-20T20:36:50.190Z,0
2023-01-20T20:38:30.450Z,0
2023-01-20T20:40:10.737Z,0
2023-01-20T20:41:51.017Z,0
2023-01-20T20:43:31.235Z,0
2023-01-20T20:45:11.488Z,0
2023-01-20T20:46:51.793Z,0
2023-01-20T20:48:32.044Z,0
2023-01-20T20:50:12.368Z,0
2023-01-20T20:51:52.564Z,0
2023-01-20T20:53:32.786Z,0
2023-01-20T20:55:13.088Z,0
2023-01-20T20:56:53.272Z,0
2023-01-20T20:58:33.552Z,0
2023-01-20T21:00:13.947Z,0
2023-01-20T21:01:54.105Z,0
2023-01-20T21:03:34.272Z,0
2023-01-20T21:05:14.547Z,0
2023-01-20T21:06:54.796Z,0
2023-01-20T21:08:35.021Z,0
2023-01-20T21:10:15.577Z,0
2023-01-20T21:11:55.496Z,0
2023-01-20T21:13:35.689Z,0
2023-01-20T21:15:16.142Z,0
2023-01-20T21:16:56.181Z,0
2023-01-20T21:18:36.399Z,0
2023-01-20T21:20:16.977Z,0
2023-01-20T21:21:56.893Z,0
2023-01-20T21:23:37.131Z,0
2023-01-20T21:25:17.364Z,0
2023-01-20T21:26:57.638Z,0
2023-01-20T21:28:37.845Z,0
2023-01-20T21:30:18.572Z,0
2023-01-20T21:31:58.401Z,1
2023-01-20T21:33:38.586Z,0
2023-01-20T21:35:18.792Z,0
2023-01-20T21:36:59.085Z,0
2023-01-20T21:38:39.335Z,0
2023-01-20T21:40:19.587Z,0
2023-01-20T21:41:59.846Z,0
2023-01-20T21:43:40.132Z,0
2023-01-20T21:45:20.361Z,0
2023-01-20T21:47:00.707Z,0
2023-01-20T21:48:40.956Z,0
2023-01-20T21:50:21.316Z,0
2023-01-20T21:52:01.669Z,0
2023-01-20T21:53:41.932Z,0
2023-01-20T21:55:22.170Z,0
2023-01-20T21:57:02.422Z,0
2023-01-20T21:58:42.607Z,0
2023-01-20T22:00:22.908Z,0
2023-01-20T22:02:03.182Z,0
2023-01-20T22:03:43.336Z,0
2023-01-20T22:05:23.560Z,0
2023-01-20T22:07:03.821Z,0
2023-01-20T22:08:44.062Z,0
2023-01-20T22:10:24.356Z,0
2023-01-20T22:12:04.591Z,0
2023-01-20T22:13:44.937Z,0
2023-01-20T22:15:25.143Z,0
2023-01-20T22:17:05.366Z,0
2023-01-20T22:18:45.586Z,0
2023-01-20T22:20:25.820Z,0
2023-01-20T22:22:06.065Z,0
2023-01-20T22:23:46.315Z,0
2023-01-20T22:25:26.583Z,0
2023-01-20T22:27:06.805Z,0
2023-01-20T22:28:47.070Z,0
2023-01-20T22:30:27.313Z,0
2023-01-20T22:32:07.537Z,0
2023-01-20T22:33:47.797Z,0
2023-01-20T22:35:28.034Z,0
2023-01-20T22:37:08.259Z,0
2023-01-20T22:38:48.475Z,0
2023-01-20T22:40:28.708Z,0
2023-01-20T22:42:08.988Z,0
2023-01-20T22:43:49.297Z,0
2023-01-20T22:45:29.650Z,0
2023-01-20T22:47:09.827Z,0
2023-01-20T22:48:50.176Z,0
2023-01-20T22:50:30.336Z,0
2023-01-20T22:52:10.604Z,0
2023-01-20T22:53:50.813Z,0
2023-01-20T22:55:31.034Z,0
2023-01-20T22:57:11.237Z,0
2023-01-20T22:58:51.465Z,0
2023-01-20T23:00:31.719Z,0
2023-01-20T23:02:12.088Z,0
2023-01-20T23:03:52.264Z,0
2023-01-20T23:05:32.530Z,0
2023-01-20T23:07:12.834Z,0
2023-01-20T23:08:53.048Z,0
2023-01-20T23:10:33.371Z,0
2023-01-20T23:12:13.556Z,0
2023-01-20T23:13:53.828Z,0
2023-01-20T23:15:34.088Z,0
2023-01-20T23:17:14.348Z,0
2023-01-20T23:18:54.566Z,0
2023-01-20T23:20:34.909Z,0
2023-01-20T23:22:15.113Z,0
2023-01-20T23:23:55.323Z,0
2023-01-20T23:25:35.547Z,0
2023-01-20T23:27:15.829Z,0
2023-01-20T23:28:56.113Z,0
2023-01-20T23:30:36.397Z,0
2023-01-20T23:32:16.628Z,0
2023-01-20T23:33:56.852Z,0
2023-01-20T23:35:37.115Z,0
2023-01-20T23:37:17.377Z,0
2023-01-20T23:38:57.620Z,0
2023-01-20T23:40:37.897Z,0
2023-01-20T23:42:18.940Z,0
2023-01-20T23:43:58.468Z,0
2023-01-20T23:45:38.740Z,0
2023-01-20T23:47:18.990Z,0
2023-01-20T23:48:59.276Z,0
2023-01-20T23:50:39.535Z,0
2023-01-20T23:52:19.858Z,0
2023-01-20T23:54:00.038Z,0
2023-01-20T23:55:40.330Z,0
2023-01-20T23:57:20.601Z,0
2023-01-20T23:59:00.906Z,0
